Time;durP1;ratioP1;P1;durP2;ratioP2;P2;SDS_P1;SDS_P2;PMS_P1;PMS_P2;Temp;Humidity;BMP_temperature;BMP_pressure;BME280_temperature;BME280_humidity;BME280_pressure;Samples;Min_cycle;Max_cycle;Signal;HPM_P1;HPM_P2
2024/03/01 00:01:44;;;;;;;1.70;1.60;;;22.70;1.00;;;;;;2607877;54;20453;-68
2024/03/01 00:04:10;;;;;;;1.50;1.40;;;22.70;1.00;;;;;;2608356;54;20433;-68
2024/03/01 00:06:35;;;;;;;3.03;2.93;;;22.60;1.00;;;;;;2608580;54;20151;-68
2024/03/01 00:09:01;;;;;;;1.90;1.80;;;22.70;1.00;;;;;;2607448;54;20239;-69
2024/03/01 00:11:27;;;;;;;1.60;1.50;;;22.60;1.00;;;;;;2608538;39;20952;-69
2024/03/01 00:13:54;;;;;;;1.60;1.50;;;22.60;1.00;;;;;;2609327;39;20809;-68
2024/03/01 00:16:20;;;;;;;1.80;1.70;;;22.60;1.00;;;;;;2608776;39;20695;-68
2024/03/01 00:18:45;;;;;;;1.60;1.50;;;22.60;1.00;;;;;;2606991;54;20457;-68
2024/03/01 00:21:15;;;;;;;2.00;1.90;;;22.60;1.00;;;;;;2608477;54;20197;-69
2024/03/01 00:23:42;;;;;;;1.70;1.60;;;22.60;1.00;;;;;;2608989;39;21068;-69
2024/03/01 00:26:08;;;;;;;2.07;1.97;;;22.60;1.00;;;;;;2608658;47;20434;-69
2024/03/01 00:28:34;;;;;;;1.80;1.70;;;22.60;1.00;;;;;;2608798;54;20445;-69
2024/03/01 00:31:01;;;;;;;1.70;1.60;;;22.60;1.00;;;;;;2608004;54;20478;-69
2024/03/01 00:33:27;;;;;;;1.80;1.70;;;22.60;1.00;;;;;;2608200;54;20429;-69
2024/03/01 00:35:53;;;;;;;1.80;1.70;;;22.60;1.00;;;;;;2608220;54;20433;-68
2024/03/01 00:38:19;;;;;;;1.83;1.73;;;22.60;1.00;;;;;;2608789;54;20232;-75
2024/03/01 00:40:45;;;;;;;3.13;2.93;;;22.60;1.00;;;;;;2609314;54;20161;-75
2024/03/01 00:43:11;;;;;;;1.70;1.60;;;22.50;1.00;;;;;;2609669;54;20437;-75
2024/03/01 00:45:38;;;;;;;2.00;1.90;;;22.50;1.00;;;;;;2608610;54;20426;-76
2024/03/01 00:48:10;;;;;;;1.80;1.70;;;22.50;1.00;;;;;;2607762;54;20705;-76
2024/03/01 00:50:36;;;;;;;1.90;1.80;;;22.50;1.00;;;;;;2607634;54;20408;-76
2024/03/01 00:53:04;;;;;;;1.80;1.70;;;22.50;1.00;;;;;;2608999;54;20419;-76
2024/03/01 00:55:35;;;;;;;2.10;2.00;;;22.50;1.00;;;;;;2608886;54;20408;-75
2024/03/01 00:58:01;;;;;;;1.80;1.70;;;22.50;1.00;;;;;;2608777;54;20428;-76
2024/03/01 01:00:28;;;;;;;2.57;2.47;;;22.50;1.00;;;;;;2609153;39;21150;-75
2024/03/01 01:02:54;;;;;;;2.07;1.97;;;22.50;1.00;;;;;;2608057;54;20145;-76
2024/03/01 01:05:20;;;;;;;1.60;1.50;;;22.50;1.00;;;;;;2610050;39;20790;-76
2024/03/01 01:07:45;;;;;;;1.80;1.70;;;22.40;1.00;;;;;;2608548;54;20434;-76
2024/03/01 01:10:11;;;;;;;1.90;1.80;;;22.40;1.00;;;;;;2609787;39;20613;-76
2024/03/01 01:12:37;;;;;;;1.70;1.60;;;22.40;1.00;;;;;;2608674;54;20842;-76
2024/03/01 01:15:04;;;;;;;1.73;1.63;;;22.40;1.00;;;;;;2608407;54;20170;-76
2024/03/01 01:17:33;;;;;;;1.70;1.60;;;22.40;1.00;;;;;;2609382;54;20434;-76
2024/03/01 01:19:59;;;;;;;1.77;1.67;;;22.40;1.00;;;;;;2608793;54;20427;-76
2024/03/01 01:22:25;;;;;;;2.10;2.00;;;22.40;1.00;;;;;;2607746;54;20402;-75
2024/03/01 01:24:52;;;;;;;2.83;2.73;;;22.40;1.00;;;;;;2608487;54;20530;-76
2024/03/01 01:27:18;;;;;;;1.80;1.70;;;22.40;1.00;;;;;;2608604;54;20408;-75
2024/03/01 01:29:44;;;;;;;2.10;2.00;;;22.40;1.00;;;;;;2609067;31;20854;-76
2024/03/01 01:32:10;;;;;;;1.80;1.70;;;22.40;1.00;;;;;;2608397;54;20408;-76
2024/03/01 01:34:35;;;;;;;1.90;1.80;;;22.40;1.00;;;;;;2608755;54;20163;-76
2024/03/01 01:37:03;;;;;;;1.90;1.80;;;22.40;1.00;;;;;;2608218;54;20462;-76
2024/03/01 01:39:29;;;;;;;1.73;1.63;;;22.30;1.00;;;;;;2608482;54;20669;-76
2024/03/01 01:41:55;;;;;;;3.23;3.00;;;22.40;1.00;;;;;;2608035;54;20413;-76
2024/03/01 01:44:20;;;;;;;2.20;2.10;;;22.30;1.00;;;;;;2609122;54;21393;-75
2024/03/01 01:46:50;;;;;;;2.20;2.10;;;22.40;1.00;;;;;;2609322;39;20218;-76
2024/03/01 01:49:23;;;;;;;1.70;1.60;;;22.30;1.00;;;;;;2607967;54;20153;-68
2024/03/01 01:51:49;;;;;;;1.90;1.80;;;22.30;1.00;;;;;;2607697;54;20493;-69
2024/03/01 01:54:15;;;;;;;1.90;1.80;;;22.30;1.00;;;;;;2607362;54;20421;-68
2024/03/01 01:56:45;;;;;;;2.10;2.00;;;22.30;1.00;;;;;;2608259;39;20820;-69
2024/03/01 01:59:13;;;;;;;1.80;1.70;;;22.30;1.00;;;;;;2607158;54;20430;-69
2024/03/01 02:01:39;;;;;;;1.90;1.80;;;22.30;1.00;;;;;;2608670;54;20411;-68
2024/03/01 02:04:05;;;;;;;1.90;1.80;;;22.30;1.00;;;;;;2607065;54;20429;-68
2024/03/01 02:06:31;;;;;;;2.00;1.90;;;22.30;1.00;;;;;;2607191;54;20402;-68
2024/03/01 02:08:57;;;;;;;1.83;1.73;;;22.30;1.00;;;;;;2608825;54;20158;-68
2024/03/01 02:11:26;;;;;;;2.53;2.43;;;22.30;1.00;;;;;;2607629;54;20413;-68
2024/03/01 02:13:55;;;;;;;1.80;1.70;;;22.30;1.00;;;;;;2608890;54;20166;-68
2024/03/01 02:16:21;;;;;;;2.00;1.90;;;22.30;1.00;;;;;;2608575;54;20402;-68
2024/03/01 02:18:48;;;;;;;1.70;1.60;;;22.20;1.00;;;;;;2608055;54;20404;-67
2024/03/01 02:21:16;;;;;;;1.90;1.80;;;22.20;1.00;;;;;;2609314;39;20509;-67
2024/03/01 02:23:41;;;;;;;1.90;1.80;;;22.20;1.00;;;;;;2608309;54;20458;-68
2024/03/01 02:26:07;;;;;;;1.90;1.80;;;22.20;1.00;;;;;;2608153;54;20419;-68
2024/03/01 02:28:41;;;;;;;2.00;1.90;;;22.20;1.00;;;;;;2609084;39;20417;-67
2024/03/01 02:31:07;;;;;;;1.70;1.60;;;22.20;1.00;;;;;;2608549;54;20421;-67
2024/03/01 02:33:32;;;;;;;2.00;1.90;;;22.20;1.00;;;;;;2608863;47;20469;-68
2024/03/01 02:35:58;;;;;;;1.80;1.70;;;22.20;1.00;;;;;;2608276;47;20196;-67
2024/03/01 02:38:24;;;;;;;3.17;3.07;;;22.20;1.00;;;;;;2608285;54;20171;-68
2024/03/01 02:40:50;;;;;;;1.80;1.70;;;22.10;1.00;;;;;;2608601;54;20433;-67
2024/03/01 02:43:15;;;;;;;1.90;1.80;;;22.20;1.00;;;;;;2608696;47;20682;-68
2024/03/01 02:45:41;;;;;;;1.80;1.70;;;22.20;1.00;;;;;;2608981;54;20692;-68
2024/03/01 02:48:07;;;;;;;1.70;1.60;;;22.20;1.00;;;;;;2608076;54;20260;-68
2024/03/01 02:50:32;;;;;;;1.80;1.70;;;22.20;1.00;;;;;;2607371;54;20159;-68
2024/03/01 02:52:58;;;;;;;1.70;1.60;;;22.20;1.00;;;;;;2608869;54;20153;-68
2024/03/01 02:55:24;;;;;;;1.70;1.60;;;22.20;1.00;;;;;;2608269;54;20196;-67
2024/03/01 02:57:52;;;;;;;1.80;1.70;;;22.10;1.00;;;;;;2609031;54;20153;-65
2024/03/01 03:00:19;;;;;;;1.80;1.70;;;22.10;1.00;;;;;;2608525;54;20168;-68
2024/03/01 03:02:46;;;;;;;1.90;1.80;;;22.10;1.00;;;;;;2608073;54;20420;-68
2024/03/01 03:05:12;;;;;;;1.70;1.60;;;22.10;1.00;;;;;;2609164;54;20430;-67
2024/03/01 03:07:38;;;;;;;1.80;1.70;;;22.10;1.00;;;;;;2608539;54;20394;-69
2024/03/01 03:10:04;;;;;;;1.80;1.70;;;22.10;1.00;;;;;;2608500;54;20158;-69
2024/03/01 03:12:30;;;;;;;1.70;1.60;;;22.10;1.00;;;;;;2608321;54;20437;-68
2024/03/01 03:14:57;;;;;;;1.90;1.80;;;22.10;1.00;;;;;;2607910;54;20497;-68
2024/03/01 03:17:22;;;;;;;1.80;1.70;;;22.10;1.00;;;;;;2607142;54;20179;-68
2024/03/01 03:19:49;;;;;;;1.80;1.70;;;22.10;1.00;;;;;;2609753;39;20808;-69
2024/03/01 03:22:15;;;;;;;2.00;1.90;;;22.10;1.00;;;;;;2607966;54;20146;-68
2024/03/01 03:24:41;;;;;;;1.80;1.70;;;22.10;1.00;;;;;;2608660;39;20567;-68
2024/03/01 03:27:07;;;;;;;1.87;1.77;;;22.10;1.00;;;;;;2608414;54;20173;-68
2024/03/01 03:29:34;;;;;;;1.77;1.67;;;22.10;1.00;;;;;;2607786;54;20408;-69
2024/03/01 03:32:00;;;;;;;1.70;1.60;;;22.10;1.00;;;;;;2608749;54;20417;-69
2024/03/01 03:34:25;;;;;;;1.90;1.80;;;22.10;1.00;;;;;;2608702;54;20420;-68
2024/03/01 03:36:51;;;;;;;1.80;1.70;;;22.10;1.00;;;;;;2607831;54;20181;-68
2024/03/01 03:39:17;;;;;;;1.73;1.63;;;22.10;1.00;;;;;;2608848;54;20158;-66
2024/03/01 03:41:43;;;;;;;1.70;1.60;;;22.10;1.00;;;;;;2607995;54;20181;-66
2024/03/01 03:44:08;;;;;;;1.80;1.70;;;22.10;1.00;;;;;;2609023;54;20150;-66
2024/03/01 03:46:35;;;;;;;1.63;1.53;;;22.00;1.00;;;;;;2608507;54;21037;-64
2024/03/01 03:49:07;;;;;;;1.60;1.50;;;22.00;1.00;;;;;;2608660;39;22227;-65
2024/03/01 03:51:33;;;;;;;1.60;1.50;;;22.00;1.00;;;;;;2608192;54;20410;-66
2024/03/01 03:53:59;;;;;;;2.63;2.53;;;22.00;1.00;;;;;;2609145;31;21104;-66
2024/03/01 03:56:25;;;;;;;1.70;1.60;;;22.00;1.00;;;;;;2608479;54;20408;-66
2024/03/01 03:58:51;;;;;;;1.67;1.57;;;22.00;1.00;;;;;;2608738;54;20830;-66
2024/03/01 04:01:16;;;;;;;1.70;1.60;;;22.00;1.00;;;;;;2607902;54;20162;-65
2024/03/01 04:03:43;;;;;;;2.10;2.00;;;22.00;1.00;;;;;;2607496;39;21249;-66
2024/03/01 04:06:09;;;;;;;3.60;3.40;;;22.10;1.00;;;;;;2608168;54;20195;-66
2024/03/01 04:08:38;;;;;;;1.60;1.50;;;22.00;1.00;;;;;;2608572;54;20414;-70
2024/03/01 04:11:07;;;;;;;2.07;1.97;;;22.00;1.00;;;;;;2608667;51;20513;-70
2024/03/01 04:13:34;;;;;;;3.07;2.90;;;22.00;1.00;;;;;;2607560;54;20955;-69
2024/03/01 04:16:00;;;;;;;2.20;2.10;;;22.00;1.00;;;;;;2607807;53;20453;-69
2024/03/01 04:18:27;;;;;;;2.30;2.20;;;22.00;1.00;;;;;;2608452;54;20411;-69
2024/03/01 04:20:57;;;;;;;2.20;2.10;;;22.00;1.00;;;;;;2608091;54;20409;-70
2024/03/01 04:23:23;;;;;;;2.10;2.00;;;22.00;1.00;;;;;;2609141;39;20785;-69
2024/03/01 04:25:51;;;;;;;2.00;1.90;;;22.00;1.00;;;;;;2608625;54;20401;-70
2024/03/01 04:28:26;;;;;;;2.00;1.90;;;21.90;1.00;;;;;;2607952;54;20435;-69
2024/03/01 04:30:53;;;;;;;2.10;2.00;;;22.00;1.00;;;;;;2608200;54;20413;-69
2024/03/01 04:33:20;;;;;;;1.97;1.87;;;21.90;1.00;;;;;;2608032;54;20394;-69
2024/03/01 04:35:45;;;;;;;1.90;1.80;;;22.00;1.00;;;;;;2608682;54;21366;-69
2024/03/01 04:38:12;;;;;;;2.20;2.10;;;22.00;1.00;;;;;;2608781;54;20504;-69
2024/03/01 04:40:38;;;;;;;2.00;1.90;;;21.90;1.00;;;;;;2608454;54;20184;-69
2024/03/01 04:43:07;;;;;;;2.07;1.97;;;21.90;1.00;;;;;;2608652;47;21720;-70
2024/03/01 04:45:33;;;;;;;1.87;1.77;;;22.00;1.00;;;;;;2608647;39;21438;-69
2024/03/01 04:47:59;;;;;;;1.90;1.80;;;21.90;1.00;;;;;;2608676;54;20433;-68
2024/03/01 04:50:26;;;;;;;2.30;2.20;;;21.90;1.00;;;;;;2608981;54;20518;-68
2024/03/01 04:52:52;;;;;;;1.90;1.80;;;21.90;1.00;;;;;;2607489;54;20429;-68
2024/03/01 04:55:18;;;;;;;1.90;1.80;;;22.00;1.00;;;;;;2607838;54;20408;-68
2024/03/01 04:57:43;;;;;;;1.80;1.70;;;21.90;1.00;;;;;;2608495;39;20872;-68
2024/03/01 05:00:12;;;;;;;1.80;1.70;;;21.90;1.00;;;;;;2607898;54;20391;-68
2024/03/01 05:02:47;;;;;;;1.70;1.60;;;21.90;1.00;;;;;;2607895;54;20193;-68
2024/03/01 05:05:18;;;;;;;2.00;1.90;;;21.90;1.00;;;;;;2609011;39;20954;-68
2024/03/01 05:07:48;;;;;;;1.83;1.73;;;21.90;1.00;;;;;;2608556;54;20414;-68
2024/03/01 05:10:16;;;;;;;1.90;1.80;;;22.00;1.00;;;;;;2607779;54;20398;-68
2024/03/01 05:12:42;;;;;;;1.70;1.60;;;22.00;1.00;;;;;;2608706;54;20404;-68
2024/03/01 05:15:12;;;;;;;2.17;2.07;;;22.00;1.00;;;;;;2608311;54;20418;-67
2024/03/01 05:17:40;;;;;;;2.33;2.23;;;22.00;1.00;;;;;;2608247;54;20422;-69
2024/03/01 05:20:10;;;;;;;2.37;2.27;;;21.90;1.00;;;;;;2607950;54;20408;-68
2024/03/01 05:22:40;;;;;;;1.80;1.70;;;22.00;1.00;;;;;;2608485;39;20985;-68
2024/03/01 05:25:14;;;;;;;2.00;1.90;;;21.90;1.00;;;;;;2608555;54;20397;-69
2024/03/01 05:27:44;;;;;;;2.20;2.10;;;21.90;1.00;;;;;;2608583;54;20433;-68
2024/03/01 05:30:12;;;;;;;1.67;1.57;;;21.90;1.00;;;;;;2608339;54;20413;-68
2024/03/01 05:32:48;;;;;;;2.50;2.40;;;21.90;1.00;;;;;;2608529;39;21635;-68
2024/03/01 05:35:15;;;;;;;1.87;1.77;;;22.00;1.00;;;;;;2606964;54;20429;-68
2024/03/01 05:37:41;;;;;;;1.90;1.80;;;21.90;1.00;;;;;;2608332;54;20433;-68
2024/03/01 05:40:12;;;;;;;1.97;1.87;;;21.90;1.00;;;;;;2608114;54;20399;-68
2024/03/01 05:42:39;;;;;;;1.90;1.80;;;21.90;1.00;;;;;;2609750;54;20413;-68
2024/03/01 05:45:07;;;;;;;2.10;2.00;;;22.00;1.00;;;;;;2608786;54;20455;-67
2024/03/01 05:47:34;;;;;;;2.30;2.20;;;22.00;1.00;;;;;;2608626;54;20409;-68
2024/03/01 05:50:00;;;;;;;2.10;2.00;;;22.00;1.00;;;;;;2609050;54;20404;-68
2024/03/01 05:52:26;;;;;;;2.13;2.03;;;22.00;1.00;;;;;;2609404;54;20435;-68
2024/03/01 05:54:52;;;;;;;2.43;2.33;;;22.00;1.00;;;;;;2608942;54;20191;-68
2024/03/01 05:57:17;;;;;;;2.20;2.10;;;22.00;1.00;;;;;;2608973;54;20449;-68
2024/03/01 05:59:43;;;;;;;2.40;2.30;;;22.00;1.00;;;;;;2608918;54;20158;-68
2024/03/01 06:02:10;;;;;;;2.40;2.30;;;22.00;1.00;;;;;;2609825;54;20285;-68
2024/03/01 06:04:36;;;;;;;2.20;2.10;;;22.10;1.00;;;;;;2607947;54;20173;-68
2024/03/01 06:07:02;;;;;;;2.00;1.90;;;22.00;1.00;;;;;;2608981;54;20418;-68
2024/03/01 06:09:27;;;;;;;2.10;2.00;;;22.00;1.00;;;;;;2608813;47;20469;-68
2024/03/01 06:11:53;;;;;;;2.30;2.20;;;22.00;1.00;;;;;;2608297;54;20162;-68
2024/03/01 06:14:19;;;;;;;2.40;2.30;;;22.00;1.00;;;;;;2609427;54;20160;-68
2024/03/01 06:16:45;;;;;;;2.60;2.50;;;22.10;1.00;;;;;;2609588;47;20272;-68
2024/03/01 06:19:10;;;;;;;2.50;2.40;;;22.00;1.00;;;;;;2608313;54;20398;-68
2024/03/01 06:21:36;;;;;;;2.00;1.90;;;22.00;1.00;;;;;;2608984;54;20414;-68
2024/03/01 06:24:02;;;;;;;2.50;2.40;;;22.10;1.00;;;;;;2608814;54;20712;-68
2024/03/01 06:26:28;;;;;;;2.43;2.33;;;22.00;1.00;;;;;;2609009;54;20176;-67
2024/03/01 06:28:54;;;;;;;2.70;2.60;;;22.10;1.00;;;;;;2610654;47;20173;-66
2024/03/01 06:31:19;;;;;;;2.20;2.10;;;22.00;1.00;;;;;;2611540;54;20400;-65
2024/03/01 06:33:45;;;;;;;2.60;2.50;;;22.00;1.00;;;;;;2608674;54;20168;-65
2024/03/01 06:36:11;;;;;;;2.20;2.10;;;22.00;1.00;;;;;;2608927;54;20685;-66
2024/03/01 06:38:38;;;;;;;2.40;2.30;;;22.00;1.00;;;;;;2610004;54;20151;-66
2024/03/01 06:41:05;;;;;;;2.20;2.10;;;22.10;1.00;;;;;;2610574;47;20165;-66
2024/03/01 06:43:31;;;;;;;2.30;2.20;;;22.10;1.00;;;;;;2610859;54;21062;-66
2024/03/01 06:45:57;;;;;;;2.03;1.93;;;22.10;1.00;;;;;;2608135;54;20433;-66
2024/03/01 06:48:23;;;;;;;2.00;1.90;;;22.10;1.00;;;;;;2608802;54;20446;-66
2024/03/01 06:50:48;;;;;;;2.20;2.10;;;22.10;1.00;;;;;;2608766;54;20274;-66
2024/03/01 06:53:14;;;;;;;2.10;2.00;;;22.10;1.00;;;;;;2608716;54;20153;-66
2024/03/01 06:55:40;;;;;;;2.23;2.13;;;22.10;1.00;;;;;;2609408;54;20241;-66
2024/03/01 06:58:05;;;;;;;2.17;2.07;;;22.10;1.00;;;;;;2608350;39;20923;-66
2024/03/01 07:00:32;;;;;;;2.17;2.07;;;22.10;1.00;;;;;;2608188;54;20259;-66
2024/03/01 07:02:58;;;;;;;1.90;1.80;;;22.10;1.00;;;;;;2607670;54;20158;-66
2024/03/01 07:05:23;;;;;;;2.77;2.63;;;22.10;1.00;;;;;;2608583;54;20407;-69
2024/03/01 07:07:50;;;;;;;1.30;1.30;;;22.40;1.00;;;;;;2610903;54;20152;-68
2024/03/01 07:10:15;;;;;;;1.33;1.30;;;22.30;1.00;;;;;;2611695;47;20152;-68
2024/03/01 07:12:41;;;;;;;1.80;1.70;;;22.30;1.00;;;;;;2610922;54;20463;-68
2024/03/01 07:15:08;;;;;;;1.30;1.30;;;22.30;1.00;;;;;;2611327;54;20183;-67
2024/03/01 07:17:34;;;;;;;1.63;1.53;;;22.20;1.00;;;;;;2611477;54;20207;-68
2024/03/01 07:20:00;;;;;;;1.70;1.60;;;22.20;1.00;;;;;;2611315;54;20411;-69
2024/03/01 07:22:26;;;;;;;1.50;1.40;;;22.20;1.00;;;;;;2611756;54;20408;-68
2024/03/01 07:24:51;;;;;;;1.80;1.70;;;22.20;1.00;;;;;;2610643;54;21312;-65
2024/03/01 07:27:17;;;;;;;1.90;1.80;;;22.30;1.00;;;;;;2611654;54;20483;-66
2024/03/01 07:29:43;;;;;;;1.80;1.70;;;22.70;1.00;;;;;;2611591;54;20152;-67
2024/03/01 07:32:08;;;;;;;2.30;2.20;;;23.00;1.00;;;;;;2611652;54;20158;-70
2024/03/01 07:34:34;;;;;;;2.10;2.00;;;23.20;1.00;;;;;;2611724;48;20170;-67
2024/03/01 07:37:00;;;;;;;1.87;1.77;;;23.40;1.00;;;;;;2610630;54;20186;-67
2024/03/01 07:39:27;;;;;;;2.00;1.90;;;23.50;1.00;;;;;;2611831;54;20165;-70
2024/03/01 07:41:52;;;;;;;1.83;1.73;;;23.50;1.00;;;;;;2611829;47;20438;-75
2024/03/01 07:44:19;;;;;;;2.60;2.50;;;23.20;1.00;;;;;;2612372;39;20833;-81
2024/03/01 07:46:45;;;;;;;2.30;2.20;;;23.20;1.00;;;;;;2613318;54;20700;-77
2024/03/01 07:49:10;;;;;;;1.70;1.60;;;23.30;1.00;;;;;;2611305;54;20551;-72
2024/03/01 07:51:36;;;;;;;1.80;1.70;;;23.30;1.00;;;;;;2612048;54;20151;-82
2024/03/01 07:54:02;;;;;;;1.90;1.80;;;23.30;1.00;;;;;;2613354;54;20182;-78
2024/03/01 07:56:28;;;;;;;1.80;1.70;;;23.30;1.00;;;;;;2612017;54;20267;-80
2024/03/01 07:59:03;;;;;;;2.17;2.07;;;23.30;1.00;;;;;;2610367;54;20189;-84
2024/03/01 08:01:30;;;;;;;1.97;1.87;;;23.40;1.00;;;;;;2611909;54;20987;-75
2024/03/01 08:03:56;;;;;;;2.30;2.20;;;23.40;1.00;;;;;;2610229;47;20426;-74
2024/03/01 08:06:22;;;;;;;3.67;2.07;;;23.50;1.00;;;;;;2612081;54;20545;-73
2024/03/01 08:08:51;;;;;;;1.60;1.50;;;23.50;1.00;;;;;;2611224;54;20221;-73
2024/03/01 08:11:42;;;;;;;1.60;1.50;;;23.50;1.00;;;;;;2611256;39;21159;-71
2024/03/01 08:14:22;;;;;;;2.10;2.00;;;23.50;1.00;;;;;;2610466;54;20462;-73
2024/03/01 08:16:55;;;;;;;2.40;2.30;;;23.10;1.00;;;;;;2611668;39;20957;-76
2024/03/01 08:19:25;;;;;;;4.63;4.23;;;22.90;1.00;;;;;;2609883;54;20422;-71
2024/03/01 08:22:05;;;;;;;2.10;2.00;;;22.90;1.00;;;;;;2611330;54;20413;-72
2024/03/01 08:24:31;;;;;;;2.00;1.90;;;23.20;1.00;;;;;;2611254;54;20413;-68
2024/03/01 08:26:57;;;;;;;1.70;1.60;;;23.30;1.00;;;;;;2611040;54;20398;-70
2024/03/01 08:29:23;;;;;;;1.90;1.80;;;23.30;1.00;;;;;;2610621;54;20419;-70
2024/03/01 08:31:48;;;;;;;2.00;1.90;;;23.30;1.00;;;;;;2611192;54;20153;-71
2024/03/01 08:34:19;;;;;;;1.80;1.70;;;23.30;1.00;;;;;;2611800;47;20167;-73
2024/03/01 08:36:45;;;;;;;1.90;1.80;;;23.30;1.00;;;;;;2610777;54;20214;-70
2024/03/01 08:39:19;;;;;;;1.90;1.80;;;23.40;1.00;;;;;;2611233;47;20407;-68
2024/03/01 08:41:47;;;;;;;1.80;1.70;;;23.30;1.00;;;;;;2610684;54;20159;-67
2024/03/01 08:44:53;;;;;;;3.90;3.80;;;23.30;1.00;;;;;;2610992;54;20492;-67
2024/03/01 08:47:40;;;;;;;4.80;4.60;;;23.00;1.00;;;;;;2610292;54;20399;-71
2024/03/01 08:50:24;;;;;;;5.23;5.03;;;23.30;1.00;;;;;;2609912;54;20420;-69
2024/03/01 08:52:51;;;;;;;7.37;7.17;;;23.40;1.00;;;;;;2609471;54;20480;-67
2024/03/01 08:55:16;;;;;;;4.00;3.90;;;23.40;1.00;;;;;;2609641;54;20459;-72
2024/03/01 08:57:44;;;;;;;4.57;4.47;;;23.30;1.00;;;;;;2610597;54;20399;-71
2024/03/01 09:00:21;;;;;;;3.30;3.20;;;23.50;1.00;;;;;;2610263;54;20281;-70
2024/03/01 09:02:48;;;;;;;4.37;4.27;;;23.50;1.00;;;;;;2610630;54;20419;-74
2024/03/01 09:05:15;;;;;;;4.20;4.10;;;23.60;1.00;;;;;;2611718;54;20380;-79
2024/03/01 09:07:41;;;;;;;4.10;4.00;;;23.60;1.00;;;;;;2610249;54;20421;-75
2024/03/01 09:10:25;;;;;;;4.00;3.90;;;23.40;1.00;;;;;;2610595;54;20386;-74
2024/03/01 09:12:51;;;;;;;3.60;3.50;;;23.20;1.00;;;;;;2610763;54;20438;-74
2024/03/01 09:15:23;;;;;;;3.80;3.70;;;23.30;1.00;;;;;;2611911;54;20391;-73
2024/03/01 09:17:51;;;;;;;3.87;3.77;;;23.30;1.00;;;;;;2610828;54;20432;-73
2024/03/01 09:20:39;;;;;;;3.30;3.20;;;23.30;1.00;;;;;;2611586;54;20434;-74
2024/03/01 09:23:11;;;;;;;3.90;3.80;;;23.20;1.00;;;;;;2610219;54;21293;-68
2024/03/01 09:25:49;;;;;;;3.87;3.77;;;23.20;1.00;;;;;;2610733;54;20996;-70
2024/03/01 09:28:16;;;;;;;5.23;5.03;;;23.30;1.00;;;;;;2611160;54;20444;-71
2024/03/01 09:30:52;;;;;;;3.80;3.70;;;23.30;1.00;;;;;;2611462;54;20442;-71
2024/03/01 09:33:22;;;;;;;12.60;6.30;;;23.30;1.00;;;;;;2610473;54;20461;-72
2024/03/01 09:35:51;;;;;;;5.10;4.90;;;23.20;1.00;;;;;;2611631;54;20437;-73
2024/03/01 09:38:19;;;;;;;5.10;4.90;;;23.20;1.00;;;;;;2610826;39;20838;-71
2024/03/01 09:40:49;;;;;;;3.80;3.70;;;23.30;1.00;;;;;;2610335;51;21366;-68
2024/03/01 09:43:42;;;;;;;3.77;3.67;;;23.30;1.00;;;;;;2610190;54;20418;-69
2024/03/01 09:46:33;;;;;;;3.90;3.80;;;23.10;1.00;;;;;;2610424;54;21028;-69
2024/03/01 09:49:25;;;;;;;3.90;3.80;;;23.00;1.00;;;;;;2609701;54;20407;-69
2024/03/01 09:52:33;;;;;;;3.90;3.80;;;23.00;1.00;;;;;;2609179;39;20855;-68
2024/03/01 09:55:14;;;;;;;3.90;3.80;;;23.10;1.00;;;;;;2609749;54;20523;-68
2024/03/01 09:58:05;;;;;;;3.60;3.50;;;23.10;1.00;;;;;;2609260;54;20847;-69
2024/03/01 10:00:35;;;;;;;3.70;3.60;;;23.20;1.00;;;;;;2608751;54;20443;-77
2024/03/01 10:03:07;;;;;;;3.80;3.70;;;23.10;1.00;;;;;;2607601;39;20812;-78
2024/03/01 10:05:49;;;;;;;3.77;3.67;;;23.10;1.00;;;;;;2609775;39;21478;-78
2024/03/01 10:08:51;;;;;;;3.40;3.30;;;23.10;1.00;;;;;;2609051;54;20406;-78
2024/03/01 10:11:31;;;;;;;3.80;3.70;;;23.00;1.00;;;;;;2608065;47;20419;-76
2024/03/01 10:14:16;;;;;;;4.30;4.20;;;23.20;1.00;;;;;;2609301;54;21003;-80
2024/03/01 10:16:53;;;;;;;4.07;3.97;;;23.40;1.00;;;;;;2608528;54;20430;-78
2024/03/01 10:19:44;;;;;;;4.00;3.90;;;23.60;1.00;;;;;;2608995;54;20411;-77
2024/03/01 10:22:33;;;;;;;4.20;4.10;;;23.70;1.00;;;;;;2610201;54;20386;-81
2024/03/01 10:25:11;;;;;;;4.10;4.00;;;23.80;1.00;;;;;;2609695;54;20435;-77
2024/03/01 10:27:41;;;;;;;3.80;3.70;;;23.90;1.00;;;;;;2608995;54;20399;-73
2024/03/01 10:30:30;;;;;;;2.80;2.70;;;23.80;1.00;;;;;;2607433;54;20157;-66
2024/03/01 10:32:55;;;;;;;3.53;3.43;;;23.60;1.00;;;;;;2606600;54;20404;-66
2024/03/01 10:35:31;;;;;;;3.50;3.40;;;23.50;1.00;;;;;;2605821;47;20459;-67
2024/03/01 10:38:16;;;;;;;8.17;7.90;;;23.30;1.00;;;;;;2607562;54;20151;-72
2024/03/01 10:41:03;;;;;;;7.60;7.40;;;23.40;1.00;;;;;;2609776;54;20396;-71
2024/03/01 10:44:04;;;;;;;6.70;6.50;;;23.50;1.00;;;;;;2609311;54;20422;-67
2024/03/01 10:47:03;;;;;;;4.50;4.30;;;23.60;1.00;;;;;;2607696;51;20403;-63
2024/03/01 10:49:48;;;;;;;4.50;4.40;;;23.80;1.00;;;;;;2606897;54;20178;-67
2024/03/01 10:52:20;;;;;;;3.00;2.90;;;24.10;1.00;;;;;;2608466;47;20410;-68
2024/03/01 10:54:53;;;;;;;3.10;3.00;;;24.30;1.00;;;;;;2606962;54;20430;-67
2024/03/01 10:57:20;;;;;;;3.10;3.00;;;24.30;1.00;;;;;;2608505;39;20803;-70
2024/03/01 11:00:12;;;;;;;4.20;4.10;;;24.10;1.00;;;;;;2607901;54;20389;-67
2024/03/01 11:02:50;;;;;;;0.60;0.30;;;24.10;1.00;;;;;;2606294;54;21479;-68
2024/03/01 11:05:37;;;;;;;1.00;1.00;;;24.10;1.00;;;;;;2609955;54;20402;-75
2024/03/01 11:08:35;;;;;;;1.00;1.00;;;24.10;1.00;;;;;;2611561;54;20453;-67
2024/03/01 11:11:04;;;;;;;0.50;0.30;;;24.20;1.00;;;;;;2608861;54;20457;-70
2024/03/01 11:13:33;;;;;;;0.60;0.30;;;24.10;1.00;;;;;;2609207;54;20429;-78
2024/03/01 11:16:01;;;;;;;0.60;0.30;;;24.10;1.00;;;;;;2608963;47;20427;-71
2024/03/01 11:18:32;;;;;;;0.60;0.40;;;24.10;1.00;;;;;;2609597;54;20951;-65
2024/03/01 11:21:05;;;;;;;0.60;0.33;;;24.00;1.00;;;;;;2610304;39;20942;-80
2024/03/01 11:23:34;;;;;;;0.60;0.30;;;24.00;1.00;;;;;;2610376;54;20422;-67
2024/03/01 11:26:26;;;;;;;0.50;0.27;;;24.00;1.00;;;;;;2609672;54;20413;-67
2024/03/01 11:29:05;;;;;;;0.50;0.30;;;23.80;1.00;;;;;;2608087;54;20414;-67
2024/03/01 11:31:33;;;;;;;0.60;0.30;;;23.80;1.00;;;;;;2605224;54;20430;-68
2024/03/01 11:34:05;;;;;;;0.50;0.30;;;23.80;1.00;;;;;;2606823;54;20783;-68
2024/03/01 11:37:07;;;;;;;0.50;0.20;;;23.60;1.00;;;;;;2607388;54;20476;-68
2024/03/01 11:39:58;;;;;;;0.50;0.23;;;23.50;1.00;;;;;;2608614;39;20830;-67
2024/03/01 11:42:43;;;;;;;0.53;0.30;;;23.50;1.00;;;;;;2605858;47;20453;-67
2024/03/01 11:45:25;;;;;;;0.50;0.30;;;22.70;1.00;;;;;;2608867;54;20406;-67
2024/03/01 11:48:18;;;;;;;0.60;0.30;;;22.10;1.00;;;;;;2607879;39;21193;-68
2024/03/01 11:50:59;;;;;;;0.60;0.30;;;21.80;1.00;;;;;;2607935;54;20539;-67
2024/03/01 11:53:52;;;;;;;0.60;0.30;;;21.60;1.00;;;;;;2608752;54;20548;-67
2024/03/01 11:56:52;;;;;;;0.60;0.30;;;21.50;1.00;;;;;;2608122;54;20405;-68
2024/03/01 11:59:38;;;;;;;0.60;0.30;;;21.40;1.00;;;;;;2607156;39;20912;-66
2024/03/01 12:02:16;;;;;;;0.60;0.30;;;21.10;1.00;;;;;;2605415;47;21137;-67
2024/03/01 12:05:07;;;;;;;0.60;0.30;;;20.90;1.00;;;;;;2604819;47;20431;-66
2024/03/01 12:07:59;;;;;;;0.60;0.30;;;20.70;1.00;;;;;;2605747;54;20498;-67
2024/03/01 12:10:42;;;;;;;0.60;0.30;;;20.80;1.00;;;;;;2607110;39;20815;-64
2024/03/01 12:13:14;;;;;;;0.60;0.30;;;21.10;1.00;;;;;;2607273;54;20402;-67
2024/03/01 12:16:04;;;;;;;0.60;0.30;;;21.60;1.00;;;;;;2608251;39;20812;-67
2024/03/01 12:18:32;;;;;;;0.60;0.30;;;22.10;1.00;;;;;;2606353;54;20419;-67
2024/03/01 12:21:23;;;;;;;1.53;1.43;;;22.40;1.00;;;;;;2606703;54;20456;-72
2024/03/01 12:24:16;;;;;;;2.60;2.50;;;22.80;1.00;;;;;;2609675;54;20412;-76
2024/03/01 12:26:49;;;;;;;2.47;2.37;;;23.10;1.00;;;;;;2610071;54;20471;-75
2024/03/01 12:29:33;;;;;;;1.80;1.70;;;23.40;1.00;;;;;;2608866;54;20406;-66
2024/03/01 12:32:18;;;;;;;0.60;0.40;;;23.70;1.00;;;;;;2608873;54;20426;-70
2024/03/01 12:35:20;;;;;;;0.60;0.30;;;23.90;1.00;;;;;;2608721;54;20440;-68
2024/03/01 12:38:10;;;;;;;0.60;0.30;;;24.20;1.00;;;;;;2608988;54;20433;-67
2024/03/01 12:40:48;;;;;;;1.70;1.60;;;24.40;1.00;;;;;;2607495;54;20445;-69
2024/03/01 12:43:48;;;;;;;1.80;1.70;;;24.60;1.00;;;;;;2609994;39;20803;-65
2024/03/01 12:46:33;;;;;;;1.77;1.67;;;24.60;1.00;;;;;;2609825;54;20401;-67
2024/03/01 12:49:01;;;;;;;1.50;1.40;;;24.60;1.00;;;;;;2609194;39;20980;-60
2024/03/01 12:51:28;;;;;;;1.60;1.50;;;24.50;1.00;;;;;;2609803;54;20430;-62
2024/03/01 12:54:07;;;;;;;1.70;1.60;;;24.50;1.00;;;;;;2608692;54;20480;-62
2024/03/01 12:56:35;;;;;;;1.50;1.40;;;24.50;1.00;;;;;;2609095;54;20454;-63
2024/03/01 12:59:37;;;;;;;1.20;1.20;;;24.50;1.00;;;;;;2608291;54;20441;-62
2024/03/01 13:02:27;;;;;;;0.50;0.30;;;24.60;1.00;;;;;;2608259;54;20428;-67
2024/03/01 13:05:02;;;;;;;1.90;1.80;;;24.60;1.00;;;;;;2607718;54;20440;-64
2024/03/01 13:07:31;;;;;;;1.80;1.70;;;24.60;1.00;;;;;;2611119;39;20807;-63
2024/03/01 13:09:59;;;;;;;1.70;1.60;;;24.50;1.00;;;;;;2610747;54;20423;-60
2024/03/01 13:12:27;;;;;;;1.60;1.50;;;24.40;1.00;;;;;;2611103;39;20878;-63
2024/03/01 13:14:56;;;;;;;0.60;0.30;;;24.50;1.00;;;;;;2610320;54;20418;-63
2024/03/01 13:18:01;;;;;;;0.50;0.30;;;24.60;1.00;;;;;;2608786;54;20397;-63
2024/03/01 13:20:33;;;;;;;0.60;0.20;;;24.70;1.00;;;;;;2606797;54;20428;-62